Flight Track Log - Related Links

Times and Time Zones

All times are in EDT time to prevent confusion due to time zone crossing. See the ASQ4233 flight status page for this flight to view local times or setup timezone preferences in your user account.

Time Position Orientation Groundspeed Altitude Reporting Facility
EDT Latitude Longitude Course Direction KTS MPH feet Rate Location/Type
Fri 07:09:28 PM 29.9758 -95.3369 90° East 207 238 900  Level Houston Center
Fri 07:10:48 PM 29.9233 -95.3144 160° South 253 291 3,300 1,615 Climbing Houston Center
Fri 07:11:12 PM 29.9108 -95.2883 119° Southeast 256 295 3,700 764 Climbing Houston Center
Fri 07:11:43 PM 29.8894 -95.2439 119° Southeast 269 310 4,000 677 Climbing Houston Center
Fri 07:12:14 PM 29.8767 -95.2111 114° Southeast 265 305 4,400 2,029 Climbing Houston Center
Fri 07:12:51 PM 29.8606 -95.1583 109° East 275 316 6,300 2,516 Climbing Houston Center
Fri 07:13:00 PM 29.9834 -94.7732 90° East  Level FlightAware Approximate
Fri 07:13:16 PM 29.8528 -95.1264 106° East 273 314 7,000  Level Houston Center
Fri 07:13:57 PM 29.8636 -95.0542 80° East 299 344 8,600 2,032 Climbing Houston Center
Fri 07:14:00 PM 29.9833 -94.6332 90° East  Level FlightAware Approximate
Fri 07:14:18 PM 29.8683 -95.0328 76° East 293 337 9,100  Level Houston Center
Fri 07:14:53 PM 29.8800 -94.9631 79° East 313 360 10,600 1,742 Climbing Houston Center
Fri 07:15:20 PM 29.8856 -94.9328 78° East 310 357 10,900 1,079 Climbing Houston Center
Fri 07:16:22 PM 29.9086 -94.8025 78° East 349 402 12,200 1,210 Climbing Houston Center
Fri 07:17:24 PM 29.9278 -94.6961 78° East 385 443 13,400 1,403 Climbing Houston Center
Fri 07:18:26 PM 29.9539 -94.5431 79° East 400 460 15,100 1,500 Climbing Houston Center
Fri 07:19:28 PM 29.9764 -94.4233 78° East 406 467 16,500 1,258 Climbing Houston Center
Fri 07:20:30 PM 29.9989 -94.2919 79° East 414 476 17,700 1,065 Climbing Houston Center
Fri 07:21:32 PM 30.0156 -94.1550 82° East 427 491 18,700 1,161 Climbing Houston Center
Fri 07:22:34 PM 30.0361 -93.9861 82° East 441 507 20,100 1,258 Climbing Houston Center
Fri 07:23:36 PM 30.0542 -93.8419 82° East 452 520 21,300 1,171 Climbing Houston Center
Fri 07:24:37 PM 30.0711 -93.6947 82° East 463 533 22,500 1,122 Climbing Houston Center
Fri 07:25:39 PM 30.0892 -93.5475 82° East 469 540 23,600 1,210 Climbing Houston Center
Fri 07:26:41 PM 30.1094 -93.3697 82° East 472 543 25,000 1,258 Climbing Houston Center
Fri 07:27:43 PM 30.1267 -93.2219 82° East 471 542 26,200 1,161 Climbing Houston Center
Fri 07:28:45 PM 30.1467 -93.0728 81° East 474 545 27,400 1,210 Climbing Houston Center
Fri 07:29:47 PM 30.2031 -92.9447 63° Northeast 456 525 28,700 774 Climbing Houston Center
Fri 07:30:49 PM 30.2717 -92.8211 57° Northeast 457 526 29,000 145 Climbing Houston Center
Fri 07:31:51 PM 30.3433 -92.6908 57° Northeast 478 550 29,000  Level Houston Center
Fri 07:32:53 PM 30.4325 -92.5300 57° Northeast 496 571 29,000  Level Houston Center
Fri 07:33:55 PM 30.5078 -92.3906 58° Northeast 500 575 29,000  Level Houston Center
Fri 07:34:57 PM 30.5825 -92.2542 58° Northeast 504 580 29,000  Level Houston Center
Fri 07:35:59 PM 30.6564 -92.1189 58° Northeast 501 577 29,000  Level Houston Center
Fri 07:37:00 PM 30.7289 -91.9836 58° Northeast 498 573 29,000  Level Houston Center
Fri 07:38:02 PM 30.8189 -91.8197 57° Northeast 502 578 29,000  Level Houston Center
Fri 07:39:04 PM 30.8922 -91.6822 58° Northeast 504 580 29,000  Level Houston Center
Fri 07:40:06 PM 30.9672 -91.5442 58° Northeast 505 581 29,000  Level Houston Center
Fri 07:41:08 PM 31.0397 -91.4061 58° Northeast 504 580 29,000  Level Houston Center
Fri 07:42:10 PM 31.1219 -91.2506 58° Northeast 506 582 29,000  Level Houston Center
Fri 07:43:12 PM 31.1967 -91.1111 58° Northeast 505 581 29,000  Level Houston Center
Fri 07:44:14 PM 31.2703 -90.9706 58° Northeast 505 581 29,000  Level Houston Center
Fri 07:45:16 PM 31.3447 -90.8275 59° Northeast 512 589 29,000  Level Houston Center
Fri 07:46:18 PM 31.4200 -90.6856 58° Northeast 512 589 29,000  Level Houston Center
Fri 07:47:20 PM 31.4933 -90.5447 59° Northeast 507 583 29,000 145 Level Houston Center
Fri 07:48:22 PM 31.5683 -90.4006 59° Northeast 514 592 29,300 968 Climbing Houston Center
Fri 07:49:24 PM 31.6544 -90.2356 58° Northeast 497 572 31,000 1,403 Climbing Houston Center
Fri 07:50:26 PM 31.7239 -90.0997 59° Northeast 487 560 32,200 1,154 Climbing Houston Center
Fri 07:51:08 PM 31.7758 -89.9933 60° Northeast 489 563 33,000 471 Climbing Memphis Center
Fri 07:52:08 PM 31.8506 -89.8536 58° Northeast 489 563 33,000  Level Memphis Center
Fri 07:53:08 PM 31.9228 -89.7086 60° Northeast 501 577 33,000  Level Memphis Center
Fri 07:54:08 PM 31.9950 -89.5636 60° Northeast 501 577 33,000 -200 Level Memphis Center
Fri 07:55:08 PM 32.0692 -89.4208 58° Northeast 506 582 32,600 -600 Descending Memphis Center
Fri 07:56:08 PM 32.1142 -89.2831 69° East 495 570 31,800 -850 Descending Memphis Center
Fri 07:57:08 PM 32.1628 -89.1353 69° East 490 564 30,900 -900 Descending Memphis Center
Fri 07:58:08 PM 32.2114 -88.9922 68° East 478 550 30,000 -900 Descending Memphis Center
Fri 07:59:08 PM 32.2639 -88.8439 67° East 473 544 29,100 -900 Descending Memphis Center
Fri 08:00:08 PM 32.3228 -88.7028 64° Northeast 468 539 28,200 -950 Descending Memphis Center
Fri 08:01:08 PM 32.3811 -88.5592 64° Northeast 468 539 27,200 -1,070 Descending Memphis Center
Fri 08:03:13 PM 32.5200 -88.2561 61° Northeast 505 581 24,900 -1,135 Descending Atlanta Center
Fri 08:04:13 PM 32.5856 -88.1064 63° Northeast 505 581 23,700 -1,150 Descending Atlanta Center
Fri 08:05:13 PM 32.6419 -87.9733 63° Northeast 500 575 22,600 -1,150 Descending Atlanta Center
Fri 08:06:13 PM 32.7089 -87.8381 60° Northeast 493 567 21,400 -1,200 Descending Atlanta Center
Fri 08:07:13 PM 32.7756 -87.7000 60° Northeast 457 526 20,200 -1,250 Descending Atlanta Center
Fri 08:08:13 PM 32.8208 -87.5808 66° East 423 487 18,900 -1,250 Descending Atlanta Center
Fri 08:09:13 PM 32.8447 -87.4706 76° East 380 437 17,700 -1,450 Descending Atlanta Center
Fri 08:10:13 PM 32.8706 -87.3678 73° East 347 399 16,000 -1,935 Descending Atlanta Center
Fri 08:10:46 PM 32.8864 -87.3189 69° East 324 373 14,700 -2,100 Descending Atlanta Center
Fri 08:11:13 PM 32.9086 -87.2678 63° Northeast 328 377 13,900 -2,060 Descending Atlanta Center
Fri 08:11:53 PM 32.9417 -87.2044 58° Northeast 352 405 12,400 -2,000 Descending Atlanta Center
Fri 08:12:13 PM 32.9611 -87.1731 54° Northeast 322 371 11,900 -1,279 Descending Atlanta Center
Fri 08:12:54 PM 33.0003 -87.1200 49° Northeast 339 390 11,100 -900 Descending Atlanta Center
Fri 08:13:13 PM 33.0236 -87.1011 34° Northeast 313 360 11,000 -91 Descending Atlanta Center
Fri 08:14:00 PM 33.0922 -87.1108 353° North 308 354 11,000 -353 Level Atlanta Center
Fri 08:14:55 PM 33.1758 -87.1064 North 318 366 10,400 -740 Descending Atlanta Center
Fri 08:15:13 PM 33.1928 -87.0994 19° North 297 342 10,100 -1,889 Descending Atlanta Center
Fri 08:15:49 PM 33.2550 -87.1067 354° North 312 359 8,700 -1,800 Descending Atlanta Center
Fri 08:16:13 PM 33.2783 -87.1000 13° North 297 342 8,300 -1,343 Descending Atlanta Center
Fri 08:16:56 PM 33.3428 -87.1072 355° North 284 327 7,200 -1,400 Descending Atlanta Center
Fri 08:17:13 PM 33.3597 -87.1028 12° North 297 342 6,900 -1,527 Descending Atlanta Center
Fri 08:17:51 PM 33.4056 -87.1044 358° North 235 270 5,800 -1,400 Descending Atlanta Center
Fri 08:18:13 PM 33.4183 -87.0875 48° Northeast 274 315 5,500 -1,100 Descending Atlanta Center
Fri 08:18:51 PM 33.4236 -87.0453 81° East 161 185 4,700 -1,100 Descending Atlanta Center
Fri 08:19:13 PM 33.4281 -87.0306 70° East 172 198 4,400 -787 Descending Atlanta Center
Fri 08:19:52 PM 33.4311 -86.9933 84° East 156 180 3,900 -700 Descending Atlanta Center
Fri 08:20:13 PM 33.4356 -86.9786 70° East 149 171 3,700 -1,000 Descending Atlanta Center
Fri 08:20:52 PM 33.4553 -86.9469 53° Northeast 172 198 2,900 -660 Descending Atlanta Center
Fri 08:21:53 PM 33.4792 -86.9028 57° Northeast 168 193 2,600 -295 Descending Atlanta Center

Login

Don't have an account? Register now (free) for customized features, flight alerts, and more!